Time;durP1;ratioP1;P1;durP2;ratioP2;P2;SDS_P1;SDS_P2;PMS_P1;PMS_P2;Temp;Humidity;BMP_temperature;BMP_pressure;BME280_temperature;BME280_humidity;BME280_pressure;Samples;Min_cycle;Max_cycle;Signal;HPM_P1;HPM_P2
2022/05/21 00:00:52;;;;;;;1.87;1.10;;;24.90;48.00;;;;;;4924369;28;89698;-70
2022/05/21 00:03:20;;;;;;;2.07;1.23;;;24.90;48.00;;;;;;4929546;28;91132;-70
2022/05/21 00:05:49;;;;;;;0.87;0.83;;;24.90;47.90;;;;;;4921141;28;89647;-70
2022/05/21 00:08:17;;;;;;;1.27;0.67;;;24.90;47.90;;;;;;4921262;28;90943;-70
2022/05/21 00:10:46;;;;;;;2.63;0.70;;;24.90;47.90;;;;;;4925133;28;93277;-70
2022/05/21 00:13:14;;;;;;;3.70;1.17;;;24.80;47.80;;;;;;4920399;28;88425;-70
2022/05/21 00:15:42;;;;;;;0.97;0.70;;;24.80;47.80;;;;;;4935624;28;88692;-70
2022/05/21 00:18:10;;;;;;;1.50;0.50;;;24.80;47.80;;;;;;4931473;28;90619;-70
2022/05/21 00:20:50;;;;;;;2.07;0.93;;;24.80;47.80;;;;;;4930612;28;93119;-70
2022/05/21 00:23:24;;;;;;;0.40;0.40;;;24.80;47.90;;;;;;4932297;28;88915;-71
2022/05/21 00:26:00;;;;;;;2.00;0.73;;;24.80;48.60;;;;;;4919474;28;88524;-71
2022/05/21 00:28:28;;;;;;;1.23;0.60;;;24.80;47.90;;;;;;4920642;28;90745;-71
2022/05/21 00:30:56;;;;;;;3.23;1.27;;;24.80;47.90;;;;;;4920454;28;88711;-71
2022/05/21 00:33:25;;;;;;;1.60;0.50;;;24.80;47.90;;;;;;4921683;28;88792;-71
2022/05/21 00:35:53;;;;;;;2.47;1.17;;;24.80;47.90;;;;;;4920685;28;88660;-70
2022/05/21 00:38:23;;;;;;;1.23;0.80;;;24.80;47.90;;;;;;4917246;28;89186;-71
2022/05/21 00:40:52;;;;;;;3.27;0.57;;;24.80;47.90;;;;;;4929961;28;91006;-70
2022/05/21 00:43:36;;;;;;;3.03;0.67;;;24.70;47.90;;;;;;4940007;28;88946;-70
2022/05/21 00:46:04;;;;;;;0.93;0.77;;;24.70;47.90;;;;;;4922600;28;88717;-69
2022/05/21 00:48:33;;;;;;;3.27;1.17;;;24.70;47.90;;;;;;4921663;28;90237;-70
2022/05/21 00:51:01;;;;;;;1.17;0.80;;;24.80;48.00;;;;;;4920360;28;89546;-70
2022/05/21 00:53:31;;;;;;;1.97;0.90;;;24.80;48.60;;;;;;4922339;28;89380;-71
2022/05/21 00:55:59;;;;;;;3.37;0.80;;;24.80;47.90;;;;;;4921691;28;88598;-70
2022/05/21 01:01:13;;;;;;;5.83;0.97;;;24.80;47.90;;;;;;4923688;28;88986;-70
2022/05/21 01:03:42;;;;;;;2.20;1.07;;;24.70;47.80;;;;;;4920177;28;88909;-70
2022/05/21 01:06:10;;;;;;;1.27;0.60;;;24.70;47.80;;;;;;4922445;28;88465;-70
2022/05/21 01:08:40;;;;;;;2.10;1.13;;;24.70;47.80;;;;;;4924651;28;89544;-70
2022/05/21 01:11:12;;;;;;;3.40;1.23;;;24.70;47.80;;;;;;4922250;28;90525;-70
2022/05/21 01:13:41;;;;;;;2.10;1.30;;;24.70;47.80;;;;;;4923966;28;88433;-70
2022/05/21 01:16:09;;;;;;;6.23;2.03;;;24.70;47.80;;;;;;4923306;28;88522;-70
2022/05/21 01:18:37;;;;;;;2.90;1.60;;;24.70;47.80;;;;;;4927211;28;90725;-70
2022/05/21 01:21:05;;;;;;;3.57;2.13;;;24.60;47.70;;;;;;4939645;28;89673;-70
2022/05/21 01:23:35;;;;;;;5.73;2.10;;;24.60;47.70;;;;;;4928585;28;88390;-71
2022/05/21 01:26:11;;;;;;;5.03;2.73;;;24.60;48.30;;;;;;4941189;28;88571;-70
2022/05/21 01:28:39;;;;;;;3.80;1.80;;;24.60;47.70;;;;;;4942481;28;90619;-70
2022/05/21 01:31:07;;;;;;;5.83;2.77;;;24.60;47.70;;;;;;4935358;28;90529;-70
2022/05/21 01:33:36;;;;;;;9.70;3.10;;;24.60;47.70;;;;;;4937624;28;88502;-70
2022/05/21 01:36:05;;;;;;;6.60;2.70;;;24.40;47.60;;;;;;4924152;28;88377;-70
2022/05/21 01:38:37;;;;;;;7.10;3.13;;;24.60;47.70;;;;;;4923185;28;92304;-70
2022/05/21 01:41:05;;;;;;;7.23;2.80;;;24.60;47.70;;;;;;4931110;28;89797;-70
2022/05/21 01:46:19;;;;;;;10.10;3.00;;;24.60;47.70;;;;;;4941001;28;88572;-70
2022/05/21 01:48:48;;;;;;;6.57;2.50;;;24.50;47.60;;;;;;4940686;28;93948;-70
2022/05/21 01:51:16;;;;;;;9.30;2.87;;;24.60;47.70;;;;;;4931729;28;90404;-70
2022/05/21 01:53:45;;;;;;;7.87;3.10;;;24.60;47.70;;;;;;4931406;28;88414;-70
2022/05/21 01:56:14;;;;;;;5.43;2.27;;;24.60;47.70;;;;;;4921393;28;89289;-70
2022/05/21 01:58:42;;;;;;;4.23;2.60;;;24.60;47.70;;;;;;4922343;28;90610;-70
2022/05/21 02:01:10;;;;;;;4.13;2.37;;;24.50;47.60;;;;;;4925958;28;89970;-70
2022/05/21 02:03:39;;;;;;;2.90;1.93;;;24.60;47.70;;;;;;4926165;28;89823;-70
2022/05/21 02:06:07;;;;;;;4.63;2.40;;;24.50;47.60;;;;;;4924240;28;88512;-69
2022/05/21 02:08:35;;;;;;;6.90;2.43;;;24.60;48.30;;;;;;4921621;28;89471;-69
2022/05/21 02:11:05;;;;;;;2.93;1.90;;;24.50;48.20;;;;;;4922911;28;91700;-70
2022/05/21 02:13:34;;;;;;;4.53;2.43;;;24.60;47.70;;;;;;4920318;28;88635;-69
2022/05/21 02:16:02;;;;;;;3.73;1.90;;;24.50;47.60;;;;;;4922740;28;88715;-70
2022/05/21 02:18:30;;;;;;;4.47;2.37;;;24.50;47.60;;;;;;4921492;28;90406;-70
2022/05/21 02:20:58;;;;;;;4.57;2.30;;;24.50;47.60;;;;;;4922689;28;89697;-70
2022/05/21 02:23:27;;;;;;;3.87;2.30;;;24.50;47.60;;;;;;4922299;28;90785;-70
2022/05/21 02:25:58;;;;;;;5.30;2.70;;;24.50;47.60;;;;;;4924413;28;88452;-70
2022/05/21 02:28:28;;;;;;;6.43;1.83;;;24.50;47.60;;;;;;4924530;28;90378;-70
2022/05/21 02:30:57;;;;;;;3.43;2.03;;;24.50;47.60;;;;;;4923575;28;88441;-70
2022/05/21 02:33:26;;;;;;;10.77;2.60;;;24.40;47.50;;;;;;4920999;28;88321;-69
2022/05/21 02:35:54;;;;;;;4.27;1.97;;;24.50;47.60;;;;;;4923356;28;88532;-70
2022/05/21 02:41:11;;;;;;;8.17;2.10;;;24.50;47.60;;;;;;4921891;28;90826;-70
2022/05/21 02:43:43;;;;;;;5.57;2.10;;;24.40;47.50;;;;;;4922382;28;90192;-70
2022/05/21 02:46:12;;;;;;;5.40;2.77;;;24.40;47.60;;;;;;4923657;28;88604;-71
2022/05/21 02:48:40;;;;;;;4.93;2.53;;;24.40;47.60;;;;;;4922038;28;89481;-69
2022/05/21 02:51:09;;;;;;;5.07;1.83;;;24.40;47.60;;;;;;4925891;28;89706;-69
2022/05/21 02:53:37;;;;;;;4.97;2.30;;;24.40;47.60;;;;;;4924551;28;90646;-69
2022/05/21 02:56:06;;;;;;;5.47;2.17;;;24.40;47.60;;;;;;4918953;28;88532;-69
2022/05/21 02:58:34;;;;;;;4.40;2.17;;;24.40;47.60;;;;;;4922584;28;89847;-69
2022/05/21 03:01:04;;;;;;;7.47;2.37;;;24.40;47.50;;;;;;4923302;28;89632;-70
2022/05/21 03:03:33;;;;;;;4.40;2.43;;;24.40;47.50;;;;;;4923278;28;88462;-70
2022/05/21 03:06:01;;;;;;;5.53;2.00;;;24.40;47.50;;;;;;4923545;28;88677;-70
2022/05/21 03:11:15;;;;;;;5.80;2.70;;;24.40;47.50;;;;;;4937303;28;90316;-70
2022/05/21 03:13:43;;;;;;;4.97;2.33;;;24.40;47.50;;;;;;4940770;28;89700;-70
2022/05/21 03:16:12;;;;;;;5.60;2.50;;;24.40;47.50;;;;;;4923195;28;88617;-70
2022/05/21 03:18:40;;;;;;;6.63;2.37;;;24.40;47.50;;;;;;4918540;28;93535;-70
2022/05/21 03:21:08;;;;;;;5.07;2.17;;;24.40;47.50;;;;;;4922005;28;89430;-70
2022/05/21 03:23:36;;;;;;;5.60;2.40;;;24.40;47.40;;;;;;4919495;28;88410;-70
2022/05/21 03:26:04;;;;;;;7.13;2.93;;;24.40;47.40;;;;;;4922452;28;88677;-70
2022/05/21 03:28:38;;;;;;;7.60;2.97;;;24.40;47.40;;;;;;4919972;28;89620;-67
2022/05/21 03:31:06;;;;;;;5.27;2.73;;;24.40;47.40;;;;;;4917165;28;90174;-66
2022/05/21 03:33:35;;;;;;;7.87;3.00;;;24.40;47.40;;;;;;4919711;28;91971;-66
2022/05/21 03:36:04;;;;;;;10.10;3.20;;;24.30;47.30;;;;;;4920733;28;88782;-66
2022/05/21 03:38:35;;;;;;;7.10;2.90;;;24.40;47.50;;;;;;4919473;28;88639;-67
2022/05/21 03:41:03;;;;;;;7.80;3.73;;;24.30;47.40;;;;;;4921501;28;92456;-67
2022/05/21 03:43:31;;;;;;;9.07;3.27;;;24.30;47.50;;;;;;4921235;28;88949;-67
2022/05/21 03:45:59;;;;;;;6.23;3.93;;;24.30;47.50;;;;;;4923126;28;89277;-67
2022/05/21 03:48:28;;;;;;;6.40;2.97;;;24.40;47.60;;;;;;4921847;28;88970;-67
2022/05/21 03:50:57;;;;;;;6.17;3.43;;;24.40;47.60;;;;;;4923253;28;90546;-66
2022/05/21 03:53:25;;;;;;;7.33;3.90;;;24.40;47.60;;;;;;4930392;28;88932;-66
2022/05/21 03:55:53;;;;;;;5.20;3.43;;;24.40;47.60;;;;;;4921896;28;88472;-66
2022/05/21 03:58:21;;;;;;;9.33;3.23;;;24.40;47.50;;;;;;4925144;28;90677;-66
2022/05/21 04:00:50;;;;;;;5.13;3.27;;;24.40;47.50;;;;;;4920885;28;90497;-67
2022/05/21 04:03:19;;;;;;;7.87;3.33;;;24.40;47.50;;;;;;4921843;28;89153;-66
2022/05/21 04:05:47;;;;;;;6.20;3.70;;;24.40;47.50;;;;;;4922399;28;88513;-65
2022/05/21 04:08:18;;;;;;;4.97;2.90;;;24.40;47.50;;;;;;4936209;28;91629;-65
2022/05/21 04:10:47;;;;;;;5.10;2.50;;;24.40;47.50;;;;;;4923829;28;90144;-66
2022/05/21 04:13:15;;;;;;;5.50;2.97;;;24.40;46.90;;;;;;4940915;28;88530;-65
2022/05/21 04:15:43;;;;;;;5.77;3.50;;;24.40;47.40;;;;;;4941439;28;88524;-66
2022/05/21 04:18:14;;;;;;;5.50;2.73;;;24.40;47.40;;;;;;4925655;28;89593;-64
2022/05/21 04:20:42;;;;;;;5.67;3.07;;;24.40;47.40;;;;;;4937498;28;92992;-65
2022/05/21 04:23:10;;;;;;;4.60;2.53;;;24.40;47.40;;;;;;4940947;28;88260;-64
2022/05/21 04:25:39;;;;;;;9.17;2.23;;;24.40;47.40;;;;;;4929229;28;90251;-64
2022/05/21 04:28:16;;;;;;;7.43;2.63;;;24.40;47.40;;;;;;4921369;28;89871;-66
2022/05/21 04:30:44;;;;;;;4.53;2.80;;;24.40;47.30;;;;;;4932455;28;92836;-65
2022/05/21 04:33:12;;;;;;;5.73;2.60;;;24.60;47.40;;;;;;4938819;28;88968;-64
2022/05/21 04:38:26;;;;;;;3.60;2.27;;;25.20;47.00;;;;;;4937479;28;89221;-65
2022/05/21 04:40:56;;;;;;;7.07;2.23;;;25.50;46.70;;;;;;4929227;28;90122;-65
2022/05/21 04:43:24;;;;;;;6.70;2.47;;;25.80;46.60;;;;;;4924820;28;91724;-66
2022/05/21 04:45:52;;;;;;;6.03;2.77;;;25.90;46.40;;;;;;4940750;28;88620;-65
2022/05/21 04:48:20;;;;;;;6.47;3.20;;;25.90;46.20;;;;;;4925283;28;89351;-65
2022/05/21 04:50:48;;;;;;;6.30;2.63;;;26.00;46.30;;;;;;4924104;28;89167;-65
2022/05/21 04:53:16;;;;;;;5.57;2.53;;;25.90;46.20;;;;;;4923975;28;89719;-65
2022/05/21 04:55:44;;;;;;;5.10;2.57;;;25.80;46.20;;;;;;4924501;28;88524;-65
2022/05/21 04:58:13;;;;;;;5.07;2.23;;;25.80;46.40;;;;;;4927294;28;90667;-65
2022/05/21 05:00:41;;;;;;;5.13;2.47;;;25.80;46.40;;;;;;4923346;28;89541;-65
2022/05/21 05:03:13;;;;;;;3.80;2.67;;;25.70;46.50;;;;;;4923300;28;89223;-65
2022/05/21 05:05:41;;;;;;;5.80;2.30;;;25.70;46.60;;;;;;4924085;28;88404;-64
2022/05/21 05:08:09;;;;;;;3.23;2.20;;;25.70;46.60;;;;;;4927331;28;93512;-67
2022/05/21 05:10:37;;;;;;;3.53;3.23;;;25.70;46.60;;;;;;4922740;28;90001;-68
2022/05/21 05:13:05;;;;;;;4.73;1.60;;;25.60;46.60;;;;;;4928199;28;88835;-68
2022/05/21 05:15:34;;;;;;;3.57;1.70;;;25.60;46.60;;;;;;4929484;28;88561;-67
2022/05/21 05:18:05;;;;;;;3.40;2.20;;;25.60;46.60;;;;;;4924039;28;90617;-67
2022/05/21 05:20:33;;;;;;;3.07;1.60;;;25.60;46.60;;;;;;4925727;28;88963;-67
2022/05/21 05:23:03;;;;;;;3.97;2.17;;;25.60;46.60;;;;;;4934243;28;88665;-67
2022/05/21 05:25:31;;;;;;;2.33;1.63;;;25.60;46.60;;;;;;4922887;28;88727;-65
2022/05/21 05:27:59;;;;;;;3.30;1.77;;;25.60;46.60;;;;;;4926396;28;91005;-65
2022/05/21 05:30:27;;;;;;;3.33;1.93;;;25.60;46.60;;;;;;4924240;28;89074;-66
2022/05/21 05:32:59;;;;;;;5.20;1.93;;;25.60;46.60;;;;;;4922031;28;89286;-65
2022/05/21 05:35:27;;;;;;;4.87;2.00;;;25.60;46.60;;;;;;4924156;28;88321;-65
2022/05/21 05:37:55;;;;;;;2.83;1.83;;;25.60;46.60;;;;;;4923646;28;89581;-67
2022/05/21 05:40:24;;;;;;;2.73;1.70;;;25.60;46.60;;;;;;4922567;28;89628;-65
2022/05/21 05:42:52;;;;;;;7.07;2.30;;;25.70;46.70;;;;;;4923249;28;88619;-64
2022/05/21 05:45:20;;;;;;;3.77;1.83;;;25.70;46.60;;;;;;4923227;28;88586;-65
2022/05/21 05:47:48;;;;;;;5.30;1.77;;;25.70;46.60;;;;;;4923432;28;90704;-65
2022/05/21 05:50:18;;;;;;;2.03;1.40;;;25.70;46.60;;;;;;4923223;28;90110;-65
2022/05/21 05:52:46;;;;;;;3.37;2.17;;;25.70;46.60;;;;;;4923473;28;88278;-65
2022/05/21 05:55:14;;;;;;;4.23;1.80;;;25.70;46.60;;;;;;4923386;28;88467;-65
2022/05/21 05:57:42;;;;;;;2.80;1.80;;;25.70;46.60;;;;;;4922913;28;91399;-65
2022/05/21 06:00:10;;;;;;;2.47;1.60;;;25.70;46.60;;;;;;4923101;28;91942;-65
2022/05/21 06:05:25;;;;;;;2.37;1.10;;;25.70;46.60;;;;;;4922411;28;88471;-65
2022/05/21 06:07:54;;;;;;;1.13;1.00;;;25.70;46.60;;;;;;4932012;28;90742;-65
2022/05/21 06:10:24;;;;;;;2.40;1.07;;;25.70;46.60;;;;;;4921056;28;91588;-65
2022/05/21 06:12:52;;;;;;;2.67;1.00;;;25.70;46.60;;;;;;4921537;28;88953;-65
2022/05/21 06:15:20;;;;;;;2.20;1.30;;;25.70;46.50;;;;;;4925777;28;88552;-64
2022/05/21 06:17:49;;;;;;;6.43;1.87;;;25.60;46.50;;;;;;4928170;28;90084;-65
2022/05/21 06:20:18;;;;;;;3.13;1.10;;;25.60;46.50;;;;;;4942431;28;89067;-64
2022/05/21 06:22:48;;;;;;;1.50;0.93;;;25.60;46.40;;;;;;4940588;28;92335;-64
2022/05/21 06:25:17;;;;;;;1.33;0.83;;;25.60;46.40;;;;;;4942636;28;88616;-64
2022/05/21 06:27:45;;;;;;;3.13;1.17;;;25.60;46.30;;;;;;4929054;28;90957;-64
2022/05/21 06:30:14;;;;;;;4.07;1.53;;;25.60;46.40;;;;;;4921664;28;88584;-64
2022/05/21 06:32:42;;;;;;;2.63;1.20;;;25.60;46.40;;;;;;4922225;28;89961;-65
2022/05/21 06:35:10;;;;;;;3.60;1.10;;;25.60;46.40;;;;;;4923869;28;89390;-64
2022/05/21 06:37:38;;;;;;;3.27;1.17;;;25.60;46.50;;;;;;4921838;28;89814;-65
2022/05/21 06:40:09;;;;;;;4.20;1.20;;;25.60;46.50;;;;;;4921777;28;89950;-64
2022/05/21 06:42:37;;;;;;;3.07;1.37;;;25.60;46.50;;;;;;4923188;28;88428;-64
2022/05/21 06:45:07;;;;;;;3.13;0.93;;;25.70;46.50;;;;;;4922032;28;88465;-65
2022/05/21 06:47:36;;;;;;;2.40;1.00;;;25.60;46.30;;;;;;4921903;28;93050;-64
2022/05/21 06:50:05;;;;;;;4.73;1.03;;;25.70;46.40;;;;;;4919876;28;90601;-64
2022/05/21 06:52:36;;;;;;;2.87;1.00;;;25.60;46.30;;;;;;4922541;28;88838;-65
2022/05/21 06:55:11;;;;;;;6.43;0.90;;;25.70;46.20;;;;;;4922477;28;88553;-64
2022/05/21 06:57:38;;;;;;;3.60;1.10;;;25.70;46.80;;;;;;4920570;28;89691;-64
2022/05/21 07:00:08;;;;;;;7.17;1.07;;;25.70;46.10;;;;;;4921390;28;90145;-64
2022/05/21 07:02:36;;;;;;;5.10;1.43;;;25.70;46.10;;;;;;4920835;28;90751;-64
2022/05/21 07:08:03;;;;;;;3.23;1.00;;;25.70;46.00;;;;;;4896263;28;89620;-64
2022/05/21 07:10:33;;;;;;;2.80;0.77;;;25.70;45.90;;;;;;4905142;28;89113;-64
2022/05/21 07:13:01;;;;;;;8.80;1.40;;;25.60;45.80;;;;;;4921823;28;89673;-64
2022/05/21 07:15:29;;;;;;;3.53;1.00;;;25.60;45.80;;;;;;4921150;28;88545;-65
2022/05/21 07:18:01;;;;;;;1.50;0.70;;;25.60;45.80;;;;;;4920872;28;90739;-64
2022/05/21 07:20:29;;;;;;;4.90;1.07;;;25.60;45.80;;;;;;4920654;28;89503;-64
2022/05/21 07:22:57;;;;;;;5.83;1.37;;;25.60;45.70;;;;;;4922628;28;89849;-64
2022/05/21 07:25:29;;;;;;;1.20;0.80;;;25.50;45.70;;;;;;4921067;28;88726;-65
2022/05/21 07:27:59;;;;;;;3.23;1.00;;;25.50;45.60;;;;;;4920548;28;91019;-64
2022/05/21 07:30:27;;;;;;;3.97;1.10;;;25.50;45.60;;;;;;4918313;28;90128;-65
2022/05/21 07:32:56;;;;;;;2.43;0.70;;;25.50;45.70;;;;;;4920781;28;88970;-65
2022/05/21 07:35:25;;;;;;;1.37;0.97;;;25.50;45.60;;;;;;4921143;28;88538;-65
2022/05/21 07:37:53;;;;;;;2.13;0.60;;;25.50;45.60;;;;;;4920444;28;90436;-64
2022/05/21 07:40:24;;;;;;;1.63;0.70;;;25.50;45.60;;;;;;4920689;28;90016;-64
2022/05/21 07:42:52;;;;;;;2.43;0.70;;;25.50;45.60;;;;;;4920743;28;89225;-64
2022/05/21 07:45:22;;;;;;;3.67;0.80;;;25.50;45.60;;;;;;4918012;28;88626;-64
2022/05/21 07:47:50;;;;;;;1.50;0.70;;;25.50;45.60;;;;;;4920565;28;90523;-64
2022/05/21 07:50:19;;;;;;;2.10;0.90;;;25.50;45.50;;;;;;4921117;28;88803;-64
2022/05/21 07:52:47;;;;;;;3.23;1.07;;;25.50;45.50;;;;;;4917726;28;90670;-65
2022/05/21 07:55:16;;;;;;;2.63;0.70;;;25.50;45.60;;;;;;4921025;28;89502;-64
2022/05/21 07:57:44;;;;;;;7.10;1.00;;;25.50;45.60;;;;;;4920119;28;89545;-65
2022/05/21 08:00:17;;;;;;;3.43;1.10;;;25.50;45.60;;;;;;4920666;28;89500;-64
2022/05/21 08:02:47;;;;;;;8.73;1.97;;;25.50;45.60;;;;;;4920915;28;88435;-64
2022/05/21 08:05:15;;;;;;;3.20;0.77;;;25.50;45.50;;;;;;4921491;28;88419;-65
2022/05/21 08:07:44;;;;;;;5.63;1.33;;;25.50;45.50;;;;;;4919171;28;90720;-65
2022/05/21 08:10:13;;;;;;;7.57;1.50;;;25.40;45.40;;;;;;4919203;28;89384;-65
2022/05/21 08:12:42;;;;;;;3.10;0.90;;;25.40;45.40;;;;;;4919921;28;89773;-65
2022/05/21 08:15:10;;;;;;;4.60;1.23;;;25.40;45.40;;;;;;4921735;28;88611;-65
2022/05/21 08:17:38;;;;;;;2.90;1.07;;;25.40;45.40;;;;;;4923685;28;90938;-65
2022/05/21 08:20:11;;;;;;;3.77;1.43;;;25.40;45.40;;;;;;4921417;28;90148;-65
2022/05/21 08:28:10;;;;;;;3.53;1.17;;;25.50;45.70;;;;;;4921106;28;88951;-66
2022/05/21 08:30:37;;;;;;;2.23;1.10;;;25.50;46.00;;;;;;4919811;28;90144;-66
2022/05/21 08:33:06;;;;;;;3.80;1.30;;;25.50;46.10;;;;;;4921289;28;88749;-66
2022/05/21 08:35:38;;;;;;;4.77;1.33;;;25.40;46.20;;;;;;4910803;28;88501;-66
2022/05/21 08:38:06;;;;;;;5.70;1.30;;;25.40;46.20;;;;;;4910075;28;90684;-65
2022/05/21 08:40:40;;;;;;;3.43;1.00;;;25.40;46.30;;;;;;4909584;28;89003;-66
2022/05/21 08:43:12;;;;;;;3.90;1.73;;;25.40;46.30;;;;;;4914921;28;88827;-66
2022/05/21 08:45:57;;;;;;;7.50;1.30;;;25.40;46.40;;;;;;4920896;28;88358;-65
2022/05/21 08:48:25;;;;;;;3.27;1.23;;;25.40;46.40;;;;;;4921094;28;89605;-66
2022/05/21 08:50:55;;;;;;;6.33;1.67;;;25.40;46.40;;;;;;4917141;28;88824;-65
2022/05/21 08:53:25;;;;;;;4.63;1.63;;;25.40;46.40;;;;;;4922011;28;88786;-65
2022/05/21 08:55:54;;;;;;;3.87;1.80;;;25.40;46.40;;;;;;4921543;28;88595;-66
2022/05/21 08:58:25;;;;;;;6.80;2.10;;;25.40;46.30;;;;;;4921934;28;90733;-65
2022/05/21 09:00:53;;;;;;;8.30;3.03;;;25.40;46.30;;;;;;4920278;28;90429;-65
2022/05/21 09:03:22;;;;;;;5.83;2.70;;;25.40;46.30;;;;;;4918260;28;89737;-65
2022/05/21 09:05:56;;;;;;;6.33;3.00;;;25.40;46.20;;;;;;4922833;28;88589;-65
2022/05/21 09:08:30;;;;;;;8.10;3.47;;;25.40;46.20;;;;;;4917553;28;89941;-65
2022/05/21 09:11:01;;;;;;;5.77;3.30;;;25.40;46.30;;;;;;4922342;28;89189;-65
2022/05/21 09:13:33;;;;;;;6.90;2.33;;;25.40;46.20;;;;;;4918725;28;89728;-66
2022/05/21 09:18:47;;;;;;;8.40;2.63;;;25.40;46.30;;;;;;4921814;28;91990;-65
2022/05/21 09:21:19;;;;;;;5.23;2.63;;;25.50;46.30;;;;;;4922080;28;88539;-65
2022/05/21 09:23:51;;;;;;;6.77;2.67;;;25.40;46.20;;;;;;4922967;28;88671;-65
2022/05/21 09:26:20;;;;;;;8.53;3.00;;;25.40;46.20;;;;;;4920817;28;88489;-65
2022/05/21 09:28:49;;;;;;;4.43;2.80;;;25.40;46.20;;;;;;4923469;28;90651;-66
2022/05/21 09:31:23;;;;;;;7.73;3.47;;;25.40;46.20;;;;;;4922686;28;90009;-65
2022/05/21 09:33:51;;;;;;;3.83;2.40;;;25.40;46.10;;;;;;4922779;28;91217;-65
2022/05/21 09:36:32;;;;;;;5.37;2.47;;;25.50;46.20;;;;;;4922951;28;88614;-65
2022/05/21 09:39:00;;;;;;;6.37;2.53;;;25.40;46.10;;;;;;4925043;28;89383;-65
2022/05/21 09:41:29;;;;;;;7.37;2.80;;;25.50;46.10;;;;;;4922488;28;88827;-66
2022/05/21 09:46:44;;;;;;;5.27;2.07;;;25.50;46.10;;;;;;4922262;28;88810;-66
2022/05/21 09:49:23;;;;;;;6.03;2.13;;;25.50;46.00;;;;;;4922122;28;90710;-66
2022/05/21 09:51:58;;;;;;;8.67;2.33;;;25.50;46.00;;;;;;4921714;28;93270;-65
2022/05/21 09:54:29;;;;;;;2.77;1.50;;;25.50;45.90;;;;;;4921143;28;90894;-65
2022/05/21 09:56:59;;;;;;;5.57;2.40;;;25.50;45.90;;;;;;4921673;28;88569;-65
2022/05/21 09:59:28;;;;;;;4.27;1.87;;;25.50;45.90;;;;;;4921113;28;90933;-65
2022/05/21 10:01:57;;;;;;;7.50;2.43;;;25.50;45.80;;;;;;4921372;28;89160;-64
2022/05/21 10:04:28;;;;;;;3.43;2.13;;;25.50;45.80;;;;;;4924101;28;88812;-66
2022/05/21 10:07:01;;;;;;;5.63;1.80;;;25.50;45.80;;;;;;4921007;28;89341;-64
2022/05/21 10:12:18;;;;;;;5.47;1.77;;;25.50;45.80;;;;;;4921048;28;90149;-66
2022/05/21 10:14:49;;;;;;;5.20;2.50;;;25.50;45.80;;;;;;4923003;28;88553;-66
2022/05/21 10:17:22;;;;;;;4.80;2.20;;;25.50;45.80;;;;;;4923042;28;88481;-66
2022/05/21 10:19:54;;;;;;;4.10;2.13;;;25.50;45.70;;;;;;4918469;28;90844;-66
2022/05/21 10:22:41;;;;;;;4.33;2.00;;;25.50;45.70;;;;;;4921326;28;90061;-67
2022/05/21 10:25:11;;;;;;;4.77;1.60;;;25.50;45.80;;;;;;4921455;28;91597;-66
2022/05/21 10:28:09;;;;;;;5.00;1.97;;;25.60;45.80;;;;;;4922306;28;88460;-66
2022/05/21 10:30:53;;;;;;;8.23;3.10;;;25.50;45.90;;;;;;4922845;28;90676;-68
2022/05/21 10:33:27;;;;;;;5.83;2.40;;;25.60;46.00;;;;;;4921777;28;90023;-66
2022/05/21 10:36:00;;;;;;;7.90;2.57;;;25.60;46.10;;;;;;4924456;28;88865;-67
2022/05/21 10:39:03;;;;;;;6.33;2.37;;;25.60;46.10;;;;;;4920848;28;89463;-66
2022/05/21 10:41:38;;;;;;;11.20;2.80;;;25.60;46.20;;;;;;4920833;28;88595;-66
2022/05/21 10:44:15;;;;;;;8.93;3.50;;;25.60;46.20;;;;;;4914815;28;89530;-66
2022/05/21 10:46:51;;;;;;;6.43;3.17;;;25.60;46.20;;;;;;4919290;28;89868;-66
2022/05/21 10:49:49;;;;;;;6.57;2.93;;;25.70;46.40;;;;;;4921713;28;88383;-66
2022/05/21 10:52:20;;;;;;;6.93;3.50;;;25.60;46.30;;;;;;4920375;28;90625;-66
2022/05/21 10:55:06;;;;;;;8.60;3.10;;;25.70;47.00;;;;;;4920481;28;91145;-67
2022/05/21 10:57:40;;;;;;;7.30;2.90;;;25.60;46.30;;;;;;4920525;28;88707;-67
2022/05/21 11:00:09;;;;;;;8.43;2.70;;;25.70;46.40;;;;;;4914431;28;88637;-67
2022/05/21 11:03:08;;;;;;;3.80;2.77;;;25.70;46.20;;;;;;4911943;28;89948;-67
2022/05/21 11:06:00;;;;;;;7.70;2.77;;;25.70;46.20;;;;;;4920565;28;89625;-67
2022/05/21 11:08:30;;;;;;;6.47;2.53;;;25.70;46.10;;;;;;4921530;28;88539;-66
2022/05/21 11:11:02;;;;;;;3.47;2.33;;;25.70;46.00;;;;;;4920579;28;88885;-66
2022/05/21 11:13:33;;;;;;;7.03;2.43;;;25.70;45.90;;;;;;4916573;28;92559;-67
2022/05/21 11:16:03;;;;;;;5.17;2.87;;;25.70;45.90;;;;;;4921466;28;88608;-68
2022/05/21 11:18:34;;;;;;;7.67;2.53;;;25.70;45.80;;;;;;4920649;28;90683;-66
2022/05/21 11:21:03;;;;;;;7.13;2.03;;;25.70;45.70;;;;;;4920884;28;88687;-67
2022/05/21 11:23:34;;;;;;;3.93;2.23;;;25.70;45.60;;;;;;4951527;28;89045;-67
2022/05/21 11:26:04;;;;;;;5.20;2.07;;;25.70;45.60;;;;;;4919936;28;90456;-66
2022/05/21 11:28:35;;;;;;;4.80;1.87;;;25.70;45.60;;;;;;4920586;28;91344;-67
2022/05/21 11:31:06;;;;;;;3.53;1.90;;;25.70;45.50;;;;;;4920529;28;88635;-67
2022/05/21 11:39:03;;;;;;;4.97;2.33;;;25.70;45.30;;;;;;4908194;28;90469;-66
2022/05/21 11:41:57;;;;;;;2.83;1.57;;;25.70;45.20;;;;;;4920800;28;88531;-66
2022/05/21 11:47:40;;;;;;;2.17;1.17;;;25.70;45.20;;;;;;4919811;28;90142;-67
2022/05/21 11:50:14;;;;;;;5.00;1.80;;;25.70;45.10;;;;;;4919604;28;88545;-67
2022/05/21 11:52:57;;;;;;;3.67;1.63;;;25.70;45.10;;;;;;4920142;28;88357;-67
2022/05/21 11:55:26;;;;;;;3.70;1.20;;;25.70;45.10;;;;;;4918848;28;90605;-67
2022/05/21 11:57:57;;;;;;;2.57;1.50;;;25.70;45.00;;;;;;4919449;28;88521;-67
2022/05/21 12:00:49;;;;;;;5.53;1.67;;;25.70;45.00;;;;;;4920114;28;88554;-66
2022/05/21 12:03:21;;;;;;;2.17;1.27;;;25.70;45.00;;;;;;4920061;28;88707;-67
2022/05/21 12:05:58;;;;;;;2.57;1.23;;;25.70;44.90;;;;;;4919887;28;90797;-68
2022/05/21 12:08:43;;;;;;;3.50;1.67;;;25.70;44.90;;;;;;4918025;28;89763;-66
2022/05/21 12:11:13;;;;;;;2.40;1.27;;;25.70;44.90;;;;;;4919640;28;88801;-67
2022/05/21 12:13:52;;;;;;;5.47;1.63;;;25.70;44.80;;;;;;4919822;28;88428;-67
2022/05/21 12:16:43;;;;;;;4.67;1.23;;;25.70;44.90;;;;;;4916332;28;89796;-67
2022/05/21 12:19:11;;;;;;;2.43;1.37;;;25.70;44.90;;;;;;4919524;28;90136;-67
2022/05/21 12:21:58;;;;;;;7.20;1.47;;;25.80;44.80;;;;;;4919118;28;92396;-67
2022/05/21 12:24:40;;;;;;;4.57;1.40;;;25.80;44.90;;;;;;4917981;28;88470;-67
2022/05/21 12:27:21;;;;;;;4.07;1.20;;;25.80;44.90;;;;;;4919954;28;93588;-67
2022/05/21 12:29:53;;;;;;;1.30;1.20;;;25.80;44.80;;;;;;4949519;28;89128;-67
2022/05/21 12:32:24;;;;;;;1.57;1.27;;;25.80;44.80;;;;;;4917860;28;89785;-67
2022/05/21 12:35:17;;;;;;;2.63;1.53;;;25.80;44.70;;;;;;4919380;28;88596;-67
2022/05/21 12:37:45;;;;;;;4.37;1.80;;;25.80;45.40;;;;;;4917352;28;89304;-67
2022/05/21 12:40:19;;;;;;;4.87;1.50;;;25.90;44.70;;;;;;4918616;28;89979;-67
2022/05/21 12:42:49;;;;;;;3.50;1.40;;;25.80;44.70;;;;;;4919099;28;88632;-67
2022/05/21 12:45:33;;;;;;;3.17;1.53;;;25.80;44.60;;;;;;4919984;28;88512;-67
2022/05/21 12:48:08;;;;;;;6.53;1.83;;;25.80;44.70;;;;;;4919161;28;89643;-67
2022/05/21 12:50:36;;;;;;;4.17;1.40;;;25.80;44.60;;;;;;4918076;28;92845;-67
2022/05/21 12:53:05;;;;;;;3.93;1.83;;;25.80;44.60;;;;;;4918046;28;89228;-67
2022/05/21 12:55:34;;;;;;;4.60;1.77;;;25.90;44.60;;;;;;4917889;28;88678;-67
2022/05/21 12:58:16;;;;;;;6.20;2.23;;;25.90;44.60;;;;;;4919643;28;90717;-67
2022/05/21 13:00:51;;;;;;;4.83;1.97;;;25.80;44.60;;;;;;4918903;28;90117;-67
2022/05/21 13:03:20;;;;;;;3.27;2.17;;;25.80;44.40;;;;;;4921387;28;89140;-67
2022/05/21 13:05:51;;;;;;;4.33;2.63;;;25.80;44.40;;;;;;4920136;28;88584;-66
2022/05/21 13:08:19;;;;;;;4.47;3.30;;;25.80;44.40;;;;;;4920291;28;91576;-67
2022/05/21 13:10:57;;;;;;;6.60;3.13;;;25.90;44.50;;;;;;4914547;28;90676;-67
2022/05/21 13:13:25;;;;;;;3.27;2.27;;;25.80;44.40;;;;;;4917079;28;88333;-66
2022/05/21 13:15:57;;;;;;;6.67;3.00;;;25.90;44.50;;;;;;4917088;28;88211;-67
2022/05/21 13:18:29;;;;;;;5.07;3.47;;;25.90;44.50;;;;;;4915666;28;90656;-67
2022/05/21 13:21:00;;;;;;;8.10;3.80;;;25.90;44.40;;;;;;4912575;28;90345;-67
2022/05/21 13:24:04;;;;;;;7.33;4.43;;;25.90;44.80;;;;;;4916395;28;88509;-66
2022/05/21 13:26:34;;;;;;;6.17;3.70;;;25.90;44.60;;;;;;4918320;28;89006;-64
2022/05/21 13:29:12;;;;;;;7.10;3.53;;;25.90;44.60;;;;;;4921588;28;90780;-67
2022/05/21 13:31:41;;;;;;;7.83;3.20;;;25.90;44.70;;;;;;4922318;28;90199;-67
2022/05/21 13:34:15;;;;;;;7.23;3.50;;;25.90;44.60;;;;;;4922769;28;88779;-67
2022/05/21 13:36:46;;;;;;;6.63;2.87;;;25.90;44.60;;;;;;4922440;28;88493;-67
2022/05/21 13:39:28;;;;;;;7.83;3.53;;;26.00;44.60;;;;;;4922835;28;90829;-67
2022/05/21 13:41:58;;;;;;;6.47;3.03;;;26.00;44.60;;;;;;4920199;28;89058;-67
2022/05/21 13:44:26;;;;;;;4.47;2.60;;;26.00;44.60;;;;;;4921611;28;88375;-67
2022/05/21 13:46:57;;;;;;;5.37;3.10;;;26.00;44.50;;;;;;4921955;28;88725;-67